createdAt,value
2019-01-26T00:01:04.726Z,26.87
2019-01-26T00:03:36.282Z,27.40
2019-01-26T00:06:08.110Z,30.50
2019-01-26T00:08:39.430Z,25.63
2019-01-26T00:11:10.953Z,31.70
2019-01-26T00:13:42.354Z,32.03
2019-01-26T00:16:13.717Z,32.90
2019-01-26T00:18:45.135Z,31.80
2019-01-26T00:21:16.556Z,37.17
2019-01-26T00:23:47.870Z,38.17
2019-01-26T00:26:19.179Z,38.10
2019-01-26T00:28:50.393Z,33.57
2019-01-26T00:31:21.760Z,42.37
2019-01-26T00:33:53.305Z,40.30
2019-01-26T00:36:24.569Z,44.57
2019-01-26T00:38:55.864Z,39.10
2019-01-26T00:41:27.109Z,36.77
2019-01-26T00:43:58.386Z,42.37
2019-01-26T00:46:29.636Z,42.90
2019-01-26T00:49:00.887Z,41.47
2019-01-26T00:51:32.174Z,36.57
2019-01-26T00:54:03.463Z,40.70
2019-01-26T00:56:34.830Z,37.37
2019-01-26T00:59:06.548Z,39.30
2019-01-26T01:01:37.833Z,36.90
2019-01-26T01:04:09.212Z,34.00
2019-01-26T01:06:40.628Z,35.00
2019-01-26T01:09:16.977Z,33.73
2019-01-26T01:11:57.590Z,35.13
2019-01-26T01:14:38.882Z,30.53
2019-01-26T01:17:24.338Z,33.37
2019-01-26T01:20:01.087Z,32.03
2019-01-26T01:22:33.501Z,33.00
2019-01-26T01:25:05.750Z,41.53
2019-01-26T01:27:37.110Z,38.13
2019-01-26T01:30:11.445Z,40.90
2019-01-26T01:32:42.786Z,35.87
2019-01-26T01:35:14.286Z,35.77
2019-01-26T01:37:45.593Z,40.57
2019-01-26T01:40:17.502Z,31.90
2019-01-26T01:42:48.834Z,36.70
2019-01-26T01:45:21.205Z,34.67
2019-01-26T01:47:52.629Z,33.83
2019-01-26T01:50:23.988Z,34.57
2019-01-26T01:52:55.289Z,37.87
2019-01-26T01:55:26.597Z,39.97
2019-01-26T01:57:57.887Z,38.13
2019-01-26T02:00:29.643Z,39.33
2019-01-26T02:03:01.046Z,44.60
2019-01-26T02:05:32.438Z,40.70
2019-01-26T02:08:03.790Z,45.37
2019-01-26T02:10:35.343Z,43.63
2019-01-26T02:13:06.957Z,45.63
2019-01-26T02:15:41.606Z,44.40
2019-01-26T02:18:12.894Z,44.60
2019-01-26T02:20:44.175Z,43.87
2019-01-26T02:23:15.510Z,48.67
2019-01-26T02:25:46.719Z,45.30
2019-01-26T02:28:18.038Z,44.70
2019-01-26T02:30:49.504Z,46.70
2019-01-26T02:33:20.902Z,42.60
2019-01-26T02:35:52.125Z,47.57
2019-01-26T02:38:25.442Z,45.20
2019-01-26T02:40:56.838Z,48.60
2019-01-26T02:43:28.192Z,50.10
2019-01-26T02:45:59.687Z,54.80
2019-01-26T02:48:31.072Z,48.60
2019-01-26T02:51:02.363Z,51.37
2019-01-26T02:53:33.711Z,47.33
2019-01-26T02:56:04.997Z,49.77
2019-01-26T02:58:36.308Z,51.60
2019-01-26T03:01:07.824Z,45.23
2019-01-26T03:03:40.783Z,54.03
2019-01-26T03:06:12.261Z,52.47
2019-01-26T03:08:43.535Z,52.07
2019-01-26T03:11:14.899Z,57.57
2019-01-26T03:13:46.245Z,59.93
2019-01-26T03:16:17.589Z,63.40
2019-01-26T03:18:48.866Z,59.80
2019-01-26T03:21:20.226Z,64.93
2019-01-26T03:23:51.683Z,61.30
2019-01-26T03:26:23.278Z,65.13
2019-01-26T03:28:54.554Z,64.13
2019-01-26T03:31:25.850Z,70.40
2019-01-26T03:33:57.298Z,55.37
2019-01-26T03:36:28.744Z,51.70
2019-01-26T03:39:00.111Z,53.57
2019-01-26T03:41:31.659Z,56.27
2019-01-26T03:44:03.058Z,51.00
2019-01-26T03:46:34.358Z,51.83
2019-01-26T03:49:05.803Z,48.17
2019-01-26T03:51:37.117Z,50.03
2019-01-26T03:54:08.503Z,48.37
2019-01-26T03:56:39.807Z,45.03
2019-01-26T03:59:11.188Z,49.90
2019-01-26T04:01:43.653Z,46.30
2019-01-26T04:04:15.029Z,49.40
2019-01-26T04:06:46.394Z,49.20
2019-01-26T04:09:17.706Z,48.57
2019-01-26T04:11:48.935Z,50.43
2019-01-26T04:14:20.402Z,47.97
2019-01-26T04:16:51.740Z,50.37
2019-01-26T04:19:23.087Z,46.80
2019-01-26T04:21:54.459Z,50.83
2019-01-26T04:24:25.734Z,49.00
2019-01-26T04:26:57.009Z,51.27
2019-01-26T04:29:28.277Z,49.47
2019-01-26T04:31:59.513Z,48.07
2019-01-26T04:34:30.813Z,48.30
2019-01-26T04:37:02.013Z,49.57
2019-01-26T04:39:33.321Z,42.10
2019-01-26T04:42:04.646Z,47.00
2019-01-26T04:44:35.907Z,47.47
2019-01-26T04:47:07.164Z,44.17
2019-01-26T04:49:38.485Z,45.30
2019-01-26T04:52:09.882Z,45.80
2019-01-26T04:54:41.106Z,41.07
2019-01-26T04:57:12.351Z,49.20
2019-01-26T04:59:43.571Z,47.60
2019-01-26T05:02:15.010Z,47.83
2019-01-26T05:04:46.380Z,49.53
2019-01-26T05:07:17.779Z,45.57
2019-01-26T05:09:49.087Z,46.43
2019-01-26T05:12:20.391Z,50.33
2019-01-26T05:14:51.795Z,48.27
2019-01-26T05:17:23.064Z,51.67
2019-01-26T05:19:54.277Z,50.97
2019-01-26T05:22:25.586Z,49.17
2019-01-26T05:24:56.822Z,55.40
2019-01-26T05:27:28.170Z,48.40
2019-01-26T05:29:59.501Z,49.37
2019-01-26T05:32:30.831Z,47.77
2019-01-26T05:35:02.142Z,46.33
2019-01-26T05:37:33.431Z,45.20
2019-01-26T05:40:05.061Z,46.70
2019-01-26T05:42:36.360Z,48.87
2019-01-26T05:45:10.585Z,44.13
2019-01-26T05:47:48.096Z,47.97
2019-01-26T05:50:22.613Z,49.00
2019-01-26T05:52:54.336Z,47.87
2019-01-26T05:55:25.770Z,50.50
2019-01-26T05:57:57.169Z,45.50
2019-01-26T06:00:36.685Z,43.03
2019-01-26T06:03:08.089Z,47.80
2019-01-26T06:05:39.368Z,49.00
2019-01-26T06:08:10.791Z,45.43
2019-01-26T06:10:42.214Z,48.27
2019-01-26T06:13:13.567Z,46.87
2019-01-26T06:15:44.908Z,48.27
2019-01-26T06:18:17.093Z,47.47
2019-01-26T06:20:48.540Z,48.07
2019-01-26T06:23:19.779Z,51.23
2019-01-26T06:25:51.152Z,47.87
2019-01-26T06:28:22.371Z,46.77
2019-01-26T06:30:53.709Z,44.90
2019-01-26T06:33:25.053Z,49.47
2019-01-26T06:35:56.318Z,44.20
2019-01-26T06:38:27.574Z,46.00
2019-01-26T06:40:58.794Z,41.13
2019-01-26T06:43:30.132Z,44.23
2019-01-26T06:46:01.327Z,44.53
2019-01-26T06:48:32.604Z,44.57
2019-01-26T06:51:03.918Z,43.80
2019-01-26T06:53:35.191Z,44.80
2019-01-26T06:56:06.667Z,46.60
2019-01-26T06:58:37.985Z,44.17
2019-01-26T07:01:09.255Z,43.50
2019-01-26T07:03:40.577Z,45.67
2019-01-26T07:06:22.232Z,46.20
2019-01-26T07:08:53.523Z,46.00
2019-01-26T07:11:25.077Z,46.90
2019-01-26T07:13:57.919Z,44.20
2019-01-26T07:16:29.266Z,46.27
2019-01-26T07:19:00.615Z,43.70
2019-01-26T07:21:31.994Z,43.40
2019-01-26T07:24:03.261Z,46.27
2019-01-26T07:26:41.994Z,42.13
2019-01-26T07:29:14.306Z,45.97
2019-01-26T07:31:45.731Z,45.57
2019-01-26T07:34:17.112Z,43.37
2019-01-26T07:36:48.331Z,46.40
2019-01-26T07:39:20.167Z,47.60
2019-01-26T07:41:52.002Z,43.97
2019-01-26T07:44:23.392Z,44.37
2019-01-26T07:46:54.747Z,44.47
2019-01-26T07:49:26.072Z,45.97
2019-01-26T07:51:57.397Z,41.90
2019-01-26T07:54:28.562Z,44.70
2019-01-26T07:57:01.013Z,42.00
2019-01-26T07:59:32.359Z,40.60
2019-01-26T08:02:03.709Z,41.27
2019-01-26T08:04:35.145Z,36.43
2019-01-26T08:07:16.238Z,37.90
2019-01-26T08:09:47.543Z,39.77
2019-01-26T08:12:18.823Z,38.97
2019-01-26T08:14:50.088Z,33.77
2019-01-26T08:17:21.326Z,39.00
2019-01-26T08:19:52.515Z,38.20
2019-01-26T08:22:23.864Z,39.40
2019-01-26T08:24:56.967Z,38.60
2019-01-26T08:27:28.302Z,39.03
2019-01-26T08:29:59.619Z,39.90
2019-01-26T08:32:30.909Z,46.43
2019-01-26T08:35:02.243Z,40.70
2019-01-26T08:37:33.541Z,42.30
2019-01-26T08:40:05.224Z,46.47
2019-01-26T08:42:36.598Z,42.43
2019-01-26T08:45:11.214Z,44.37
2019-01-26T08:47:45.312Z,46.40
2019-01-26T08:50:26.329Z,44.30
2019-01-26T08:53:02.178Z,43.97
2019-01-26T08:55:37.696Z,40.90
2019-01-26T08:58:09.119Z,45.03
2019-01-26T09:00:40.390Z,43.27
2019-01-26T09:03:42.807Z,39.17
2019-01-26T09:06:39.026Z,33.63
2019-01-26T09:09:15.267Z,38.40
2019-01-26T09:11:46.856Z,35.50
2019-01-26T09:14:18.117Z,37.30
2019-01-26T09:16:49.379Z,34.73
2019-01-26T09:19:20.757Z,35.50
2019-01-26T09:21:52.182Z,39.43
2019-01-26T09:24:23.493Z,39.73
2019-01-26T09:26:54.797Z,40.47
2019-01-26T09:29:26.133Z,39.77
2019-01-26T09:31:57.377Z,40.73
2019-01-26T09:34:28.874Z,41.40
2019-01-26T09:37:00.247Z,38.50
2019-01-26T09:39:31.549Z,40.50
2019-01-26T09:42:02.983Z,37.40
2019-01-26T09:44:34.229Z,39.30
2019-01-26T09:47:05.595Z,39.20
2019-01-26T09:49:36.975Z,40.27
2019-01-26T09:52:26.890Z,37.57
2019-01-26T09:54:58.273Z,37.90
2019-01-26T09:57:30.204Z,38.13
2019-01-26T10:00:01.553Z,37.97
2019-01-26T10:02:32.802Z,39.03
2019-01-26T10:05:04.204Z,34.97
2019-01-26T10:07:35.541Z,36.53
2019-01-26T10:10:07.749Z,36.70
2019-01-26T10:12:39.150Z,37.70
2019-01-26T10:15:13.701Z,38.37
2019-01-26T10:17:46.186Z,42.13
2019-01-26T10:20:27.101Z,38.00
2019-01-26T10:22:58.543Z,38.67
2019-01-26T10:25:29.681Z,40.27
2019-01-26T10:28:01.281Z,40.00
2019-01-26T10:30:39.767Z,41.40
2019-01-26T10:33:11.268Z,33.93
2019-01-26T10:36:16.831Z,44.83
2019-01-26T10:39:08.542Z,41.00
2019-01-26T10:41:46.178Z,40.17
2019-01-26T10:44:32.457Z,39.90
2019-01-26T10:47:03.826Z,43.47
2019-01-26T10:49:35.216Z,39.47
2019-01-26T10:52:06.892Z,42.57
2019-01-26T10:54:38.246Z,39.00
2019-01-26T10:57:09.806Z,39.10
2019-01-26T10:59:41.161Z,39.43
2019-01-26T11:02:12.700Z,36.97
2019-01-26T11:04:44.057Z,36.30
2019-01-26T11:07:15.892Z,38.40
2019-01-26T11:09:47.117Z,37.27
2019-01-26T11:12:20.001Z,35.07
2019-01-26T11:14:51.386Z,32.13
2019-01-26T11:17:22.781Z,31.37
2019-01-26T11:19:54.241Z,27.73
2019-01-26T11:22:25.433Z,29.67
2019-01-26T11:24:56.826Z,27.00
2019-01-26T11:27:28.256Z,28.63
2019-01-26T11:30:00.870Z,31.00
2019-01-26T11:32:32.200Z,31.67
2019-01-26T11:35:03.671Z,30.20
2019-01-26T11:37:34.919Z,31.40
2019-01-26T11:40:17.246Z,31.40
2019-01-26T11:42:48.636Z,28.73
2019-01-26T11:45:30.553Z,30.97
2019-01-26T11:48:03.087Z,28.77
2019-01-26T11:50:39.945Z,28.07
2019-01-26T11:53:11.334Z,27.43
2019-01-26T11:56:01.429Z,28.23
2019-01-26T11:58:32.814Z,24.97
2019-01-26T12:01:21.634Z,28.13
2019-01-26T12:04:01.455Z,29.17
2019-01-26T12:06:39.331Z,25.73
2019-01-26T12:09:12.991Z,27.07
2019-01-26T12:11:44.477Z,25.20
2019-01-26T12:14:18.167Z,28.73
2019-01-26T12:16:49.476Z,27.07
2019-01-26T12:19:22.481Z,28.53
2019-01-26T12:21:54.030Z,24.80
2019-01-26T12:27:23.098Z,22.90
2019-01-26T12:29:55.075Z,20.83
2019-01-26T12:32:26.723Z,23.70
2019-01-26T12:34:57.965Z,22.10
2019-01-26T12:37:29.243Z,20.67
2019-01-26T12:40:00.655Z,17.77
2019-01-26T12:42:32.452Z,20.23
2019-01-26T12:45:22.685Z,18.60
2019-01-26T12:47:54.179Z,20.30
2019-01-26T12:50:25.626Z,20.60
2019-01-26T12:52:56.987Z,20.00
2019-01-26T12:55:28.949Z,18.50
2019-01-26T12:58:06.728Z,17.97
2019-01-26T13:00:38.151Z,16.80
2019-01-26T13:03:09.488Z,16.90
2019-01-26T13:05:43.662Z,13.80
2019-01-26T13:08:15.326Z,15.13
2019-01-26T13:10:59.658Z,13.37
2019-01-26T13:13:31.159Z,13.03
2019-01-26T13:16:02.472Z,13.10
2019-01-26T13:18:34.154Z,12.70
2019-01-26T13:21:11.861Z,12.37
2019-01-26T13:23:43.519Z,13.10
2019-01-26T13:26:14.907Z,14.77
2019-01-26T13:28:46.300Z,13.87
2019-01-26T13:31:18.843Z,12.23
2019-01-26T13:33:50.242Z,13.40
2019-01-26T13:36:24.210Z,11.97
2019-01-26T13:38:54.107Z,10.90
2019-01-26T13:41:24.207Z,12.57
2019-01-26T13:43:54.239Z,12.90
2019-01-26T13:46:24.187Z,13.33
2019-01-26T13:48:56.732Z,12.10
2019-01-26T13:51:26.652Z,13.17
2019-01-26T13:53:56.665Z,12.17
2019-01-26T13:56:26.708Z,11.30
2019-01-26T13:58:56.737Z,12.03
2019-01-26T14:01:26.711Z,11.23
2019-01-26T14:03:56.718Z,12.70
2019-01-26T14:06:26.658Z,11.30
2019-01-26T14:08:56.572Z,11.77
2019-01-26T14:11:31.554Z,12.63
2019-01-26T14:14:01.594Z,13.33
2019-01-26T14:16:31.677Z,12.30
2019-01-26T14:19:01.671Z,9.80
2019-01-26T14:21:31.698Z,9.40
2019-01-26T14:24:01.575Z,8.60
2019-01-26T14:26:31.480Z,11.37
2019-01-26T14:29:09.926Z,9.73
2019-01-26T14:31:45.142Z,9.83
2019-01-26T14:34:15.056Z,9.47
2019-01-26T14:36:45.026Z,8.80
2019-01-26T14:39:15.116Z,10.20
2019-01-26T14:41:45.043Z,9.57
2019-01-26T14:44:15.084Z,10.47
2019-01-26T14:46:44.948Z,9.40
2019-01-26T14:49:20.157Z,10.00
2019-01-26T14:51:50.148Z,9.90
2019-01-26T14:54:20.081Z,9.13
2019-01-26T14:56:50.124Z,9.00
2019-01-26T14:59:20.106Z,8.57
2019-01-26T15:01:49.916Z,8.00
2019-01-26T15:04:46.990Z,11.00
2019-01-26T15:07:16.892Z,10.20
2019-01-26T15:09:46.882Z,11.00
2019-01-26T15:12:16.761Z,10.93
2019-01-26T15:14:46.643Z,10.47
2019-01-26T15:17:16.514Z,10.20
2019-01-26T15:19:46.398Z,9.53
2019-01-26T15:22:16.387Z,10.10
2019-01-26T15:24:46.346Z,11.40
2019-01-26T15:27:16.252Z,10.90
2019-01-26T15:29:48.828Z,12.77
2019-01-26T15:32:18.829Z,10.93
2019-01-26T15:34:50.555Z,11.47
2019-01-26T15:37:20.435Z,10.70
2019-01-26T15:39:50.307Z,13.60
2019-01-26T15:42:20.216Z,13.30
2019-01-26T15:44:50.106Z,11.70
2019-01-26T15:47:20.108Z,13.10
2019-01-26T15:49:52.443Z,12.37
2019-01-26T15:52:22.370Z,12.87
2019-01-26T15:54:52.252Z,11.77
2019-01-26T15:57:22.110Z,12.47
2019-01-26T15:59:53.512Z,11.97
2019-01-26T16:02:23.642Z,10.47
2019-01-26T16:05:12.583Z,12.80
2019-01-26T16:07:45.728Z,13.07
2019-01-26T16:10:18.008Z,12.63
2019-01-26T16:12:47.955Z,11.27
2019-01-26T16:15:22.564Z,11.30
2019-01-26T16:17:52.660Z,11.30
2019-01-26T16:20:23.211Z,12.67
2019-01-26T16:22:53.157Z,12.40
2019-01-26T16:25:23.003Z,10.83
2019-01-26T16:27:53.043Z,11.77
2019-01-26T16:30:28.627Z,10.47
2019-01-26T16:33:01.488Z,12.30
2019-01-26T16:35:31.400Z,11.93
2019-01-26T16:38:01.313Z,12.90
2019-01-26T16:40:34.093Z,13.00
2019-01-26T16:43:04.048Z,11.30
2019-01-26T16:45:37.575Z,12.93
2019-01-26T16:48:11.158Z,11.97
2019-01-26T16:50:40.988Z,12.20
2019-01-26T16:53:10.963Z,12.37
2019-01-26T16:55:40.884Z,12.90
2019-01-26T16:58:11.367Z,12.50
2019-01-26T17:00:52.532Z,12.00
2019-01-26T17:03:22.392Z,12.30
2019-01-26T17:05:52.316Z,13.23
2019-01-26T17:08:22.252Z,13.57
2019-01-26T17:10:52.104Z,13.17
2019-01-26T17:13:22.020Z,12.97
2019-01-26T17:15:52.174Z,13.30
2019-01-26T17:18:24.123Z,12.90
2019-01-26T17:20:54.127Z,12.90
2019-01-26T17:23:24.146Z,11.70
2019-01-26T17:25:54.103Z,10.87
2019-01-26T17:28:24.218Z,11.50
2019-01-26T17:30:54.026Z,10.70
2019-01-26T17:33:23.878Z,8.73
2019-01-26T17:35:53.799Z,11.97
2019-01-26T17:38:23.746Z,9.37
2019-01-26T17:40:54.558Z,11.77
2019-01-26T17:43:24.717Z,11.10
2019-01-26T17:45:54.738Z,10.40
2019-01-26T17:48:27.077Z,11.10
2019-01-26T17:50:56.881Z,10.83
2019-01-26T17:53:27.101Z,11.17
2019-01-26T17:55:57.034Z,12.30
2019-01-26T17:58:30.686Z,11.20
2019-01-26T18:01:01.848Z,11.37
2019-01-26T18:03:33.067Z,11.40
2019-01-26T18:06:02.927Z,10.70
2019-01-26T18:08:33.104Z,12.07
2019-01-26T18:11:02.927Z,10.17
2019-01-26T18:13:32.944Z,11.30
2019-01-26T18:16:02.828Z,11.30
2019-01-26T18:18:32.769Z,10.27
2019-01-26T18:21:03.982Z,12.30
2019-01-26T18:23:34.963Z,12.00
2019-01-26T18:26:05.771Z,11.90
2019-01-26T18:28:35.745Z,10.57
2019-01-26T18:31:05.947Z,11.57
2019-01-26T18:33:35.855Z,10.10
2019-01-26T18:36:08.768Z,9.80
2019-01-26T18:38:38.704Z,9.33
2019-01-26T18:41:08.710Z,9.20
2019-01-26T18:43:38.729Z,10.07
2019-01-26T18:46:08.775Z,9.87
2019-01-26T18:48:38.710Z,9.23
2019-01-26T18:51:08.544Z,10.27
2019-01-26T18:53:38.410Z,8.97
2019-01-26T18:56:08.254Z,8.83
2019-01-26T18:58:39.974Z,11.27
2019-01-26T19:01:12.834Z,9.47
2019-01-26T19:04:06.638Z,9.73
2019-01-26T19:06:38.527Z,11.17
2019-01-26T19:09:11.501Z,9.70
2019-01-26T19:11:41.379Z,10.47
2019-01-26T19:14:11.289Z,9.60
2019-01-26T19:16:41.134Z,11.40
2019-01-26T19:19:10.943Z,11.03
2019-01-26T19:21:41.106Z,11.60
2019-01-26T19:24:10.925Z,11.70
2019-01-26T19:26:40.796Z,10.33
2019-01-26T19:29:12.523Z,10.13
2019-01-26T19:31:42.377Z,9.80
2019-01-26T19:34:12.428Z,8.80
2019-01-26T19:36:42.254Z,8.40
2019-01-26T19:39:12.203Z,8.80
2019-01-26T19:41:42.034Z,9.70
2019-01-26T19:44:11.896Z,8.57
2019-01-26T19:46:41.758Z,8.53
2019-01-26T19:49:11.681Z,7.67
2019-01-26T19:51:41.627Z,8.30
2019-01-26T19:54:11.632Z,8.10
2019-01-26T19:56:42.787Z,7.37
2019-01-26T19:59:12.588Z,6.53
2019-01-26T20:01:42.501Z,6.77
2019-01-26T20:04:12.325Z,8.20
2019-01-26T20:06:42.219Z,8.83
2019-01-26T20:09:12.235Z,8.60
2019-01-26T20:11:42.214Z,8.30
2019-01-26T20:14:12.040Z,7.10
2019-01-26T20:16:41.994Z,7.03
2019-01-26T20:19:11.902Z,7.90
2019-01-26T20:21:41.694Z,7.77
2019-01-26T20:24:12.525Z,8.67
2019-01-26T20:26:42.533Z,8.30
2019-01-26T20:29:13.803Z,8.60
2019-01-26T20:31:43.727Z,7.20
2019-01-26T20:34:13.584Z,6.77
2019-01-26T20:36:43.414Z,7.13
2019-01-26T20:39:13.302Z,6.43
2019-01-26T20:41:43.331Z,6.90
2019-01-26T20:44:13.184Z,7.33
2019-01-26T20:46:43.064Z,7.23
2019-01-26T20:49:13.266Z,7.30
2019-01-26T20:51:43.194Z,7.10
2019-01-26T20:54:13.022Z,7.27
2019-01-26T20:56:42.870Z,6.23
2019-01-26T20:59:13.025Z,6.60
2019-01-26T21:01:43.205Z,5.90
2019-01-26T21:04:13.137Z,6.50
2019-01-26T21:06:43.938Z,5.50
2019-01-26T21:09:13.798Z,5.10
2019-01-26T21:11:43.706Z,6.27
2019-01-26T21:14:13.930Z,5.20
2019-01-26T21:16:43.731Z,5.00
2019-01-26T21:19:13.677Z,6.30
2019-01-26T21:21:43.529Z,5.43
2019-01-26T21:24:13.561Z,4.70
2019-01-26T21:26:43.522Z,5.57
2019-01-26T21:29:19.692Z,6.40
2019-01-26T21:31:49.725Z,5.90
2019-01-26T21:34:22.598Z,7.27
2019-01-26T21:36:52.508Z,7.17
2019-01-26T21:39:22.350Z,7.77
2019-01-26T21:41:52.240Z,9.70
2019-01-26T21:44:22.122Z,9.13
2019-01-26T21:46:52.331Z,9.33
2019-01-26T21:49:22.458Z,8.40
2019-01-26T21:51:52.280Z,8.13
2019-01-26T21:54:22.250Z,7.87
2019-01-26T21:56:52.083Z,6.47
2019-01-26T21:59:21.903Z,7.00
2019-01-26T22:01:53.366Z,6.60
2019-01-26T22:04:23.318Z,6.53
2019-01-26T22:06:53.273Z,5.13
2019-01-26T22:09:23.212Z,6.63
2019-01-26T22:11:53.118Z,6.23
2019-01-26T22:14:23.135Z,6.03
2019-01-26T22:16:53.089Z,6.73
2019-01-26T22:19:23.085Z,6.90
2019-01-26T22:21:52.978Z,7.90
2019-01-26T22:24:22.849Z,6.37
2019-01-26T22:26:52.795Z,6.00
2019-01-26T22:29:22.605Z,5.07
2019-01-26T22:31:52.477Z,5.00
2019-01-26T22:34:22.347Z,5.50
2019-01-26T22:36:52.167Z,5.87
2019-01-26T22:39:22.056Z,5.80
2019-01-26T22:41:51.966Z,6.57
2019-01-26T22:44:21.962Z,5.13
2019-01-26T22:46:51.784Z,6.47
2019-01-26T22:49:21.668Z,3.93
2019-01-26T22:51:53.391Z,3.60
2019-01-26T22:54:23.031Z,3.83
2019-01-26T22:56:53.317Z,3.63
2019-01-26T22:59:23.189Z,4.90
2019-01-26T23:01:53.109Z,7.27
2019-01-26T23:04:59.966Z,4.70
2019-01-26T23:07:54.607Z,5.67
2019-01-26T23:11:02.515Z,4.87
2019-01-26T23:14:15.865Z,4.90
2019-01-26T23:17:27.513Z,4.40
2019-01-26T23:20:07.621Z,4.03
2019-01-26T23:23:29.264Z,4.00
2019-01-26T23:26:30.215Z,3.83
2019-01-26T23:29:25.101Z,3.60
2019-01-26T23:31:54.944Z,3.23
2019-01-26T23:34:24.865Z,2.80
2019-01-26T23:36:55.122Z,2.87
2019-01-26T23:39:24.957Z,2.90
2019-01-26T23:41:54.809Z,3.10
2019-01-26T23:44:24.704Z,2.70
2019-01-26T23:46:54.565Z,3.10
2019-01-26T23:49:24.427Z,2.77
2019-01-26T23:51:54.260Z,2.63
2019-01-26T23:54:24.084Z,2.60
2019-01-26T23:56:54.919Z,2.00
2019-01-26T23:59:24.796Z,2.70
